Elnora, New York
Current Conditions -  °F | °C
As of 2:51 AM on Tuesday 21 Oct 2014 (Local Time) from KALB Reporting Station
Light Rain Light Rain  
Wind Chill:   Ceiling: 6000
Heat Index:   Visibility: 10mi
Dew Point:   Wind: 3mph
Humidity: 80%   Direction: 180°S
Pressure: 29.92"   Gusts: NA
Location:  42.8536°N, 73.7851°W
Report Text: KALB 210651Z 18003KT 10SM -RA BKN060 OVC075 09/06 A2992 RMK AO2 SLP133 VIS LWR NW-N P0001 T00940061
Loading
Personal Weather Stations






























Interactive Weather Map
Tropical Storm Tracking
New forecast layout! Learn more

10-Day Weather Forecast

Advertisements
Track Severe Weather on mobile